sensor_id;sensor_type;location;lat;lon;timestamp;P1;durP1;ratioP1;P2;durP2;ratioP2
20639;SDS011;10479;53.524;9.846;2023-05-10T00:01:07;9.98;;;3.80;;
20639;SDS011;10479;53.524;9.846;2023-05-10T00:03:33;5.70;;;2.90;;
20639;SDS011;10479;53.524;9.846;2023-05-10T00:05:58;6.10;;;3.13;;
20639;SDS011;10479;53.524;9.846;2023-05-10T00:08:24;6.88;;;2.92;;
20639;SDS011;10479;53.524;9.846;2023-05-10T00:10:49;6.63;;;2.80;;
20639;SDS011;10479;53.524;9.846;2023-05-10T00:13:15;5.55;;;2.83;;
20639;SDS011;10479;53.524;9.846;2023-05-10T00:15:40;11.18;;;3.10;;
20639;SDS011;10479;53.524;9.846;2023-05-10T00:18:06;8.82;;;2.88;;
20639;SDS011;10479;53.524;9.846;2023-05-10T00:20:31;7.57;;;3.10;;
20639;SDS011;10479;53.524;9.846;2023-05-10T00:22:57;6.38;;;3.33;;
20639;SDS011;10479;53.524;9.846;2023-05-10T00:25:22;9.40;;;3.55;;
20639;SDS011;10479;53.524;9.846;2023-05-10T00:27:48;10.85;;;3.40;;
20639;SDS011;10479;53.524;9.846;2023-05-10T00:30:13;12.35;;;3.55;;
20639;SDS011;10479;53.524;9.846;2023-05-10T00:32:39;8.10;;;3.42;;
20639;SDS011;10479;53.524;9.846;2023-05-10T00:35:04;7.10;;;3.25;;
20639;SDS011;10479;53.524;9.846;2023-05-10T00:37:30;8.82;;;3.10;;
20639;SDS011;10479;53.524;9.846;2023-05-10T00:39:55;9.57;;;3.40;;
20639;SDS011;10479;53.524;9.846;2023-05-10T00:42:21;10.07;;;3.60;;
20639;SDS011;10479;53.524;9.846;2023-05-10T00:44:47;9.75;;;3.97;;
20639;SDS011;10479;53.524;9.846;2023-05-10T00:47:12;7.43;;;3.47;;
20639;SDS011;10479;53.524;9.846;2023-05-10T00:49:38;8.40;;;3.05;;
20639;SDS011;10479;53.524;9.846;2023-05-10T00:52:03;10.65;;;3.75;;
20639;SDS011;10479;53.524;9.846;2023-05-10T00:54:29;7.68;;;3.83;;
20639;SDS011;10479;53.524;9.846;2023-05-10T00:56:55;8.40;;;3.60;;
20639;SDS011;10479;53.524;9.846;2023-05-10T00:59:22;5.72;;;3.10;;
20639;SDS011;10479;53.524;9.846;2023-05-10T01:01:47;8.75;;;3.40;;
20639;SDS011;10479;53.524;9.846;2023-05-10T01:04:13;8.63;;;3.38;;
20639;SDS011;10479;53.524;9.846;2023-05-10T01:06:39;8.45;;;3.60;;
20639;SDS011;10479;53.524;9.846;2023-05-10T01:09:05;10.05;;;3.70;;
20639;SDS011;10479;53.524;9.846;2023-05-10T01:11:32;7.10;;;3.45;;
20639;SDS011;10479;53.524;9.846;2023-05-10T01:13:58;9.07;;;3.47;;
20639;SDS011;10479;53.524;9.846;2023-05-10T01:16:24;8.05;;;3.63;;
20639;SDS011;10479;53.524;9.846;2023-05-10T01:18:50;6.55;;;3.35;;
20639;SDS011;10479;53.524;9.846;2023-05-10T01:21:38;8.38;;;3.80;;
20639;SDS011;10479;53.524;9.846;2023-05-10T01:24:33;10.95;;;3.58;;
20639;SDS011;10479;53.524;9.846;2023-05-10T01:27:07;8.00;;;3.50;;
20639;SDS011;10479;53.524;9.846;2023-05-10T01:35:40;11.43;;;3.70;;
20639;SDS011;10479;53.524;9.846;2023-05-10T01:43:22;7.78;;;4.00;;
20639;SDS011;10479;53.524;9.846;2023-05-10T01:45:58;6.80;;;3.47;;
20639;SDS011;10479;53.524;9.846;2023-05-10T01:48:35;7.63;;;4.03;;
20639;SDS011;10479;53.524;9.846;2023-05-10T01:51:03;6.70;;;4.00;;
20639;SDS011;10479;53.524;9.846;2023-05-10T01:53:29;10.05;;;3.63;;
20639;SDS011;10479;53.524;9.846;2023-05-10T01:55:56;8.02;;;3.40;;
20639;SDS011;10479;53.524;9.846;2023-05-10T01:58:25;7.57;;;3.78;;
20639;SDS011;10479;53.524;9.846;2023-05-10T02:00:52;8.55;;;3.50;;
20639;SDS011;10479;53.524;9.846;2023-05-10T02:03:20;10.15;;;3.85;;
20639;SDS011;10479;53.524;9.846;2023-05-10T02:05:48;7.72;;;3.53;;
20639;SDS011;10479;53.524;9.846;2023-05-10T02:08:14;8.73;;;3.92;;
20639;SDS011;10479;53.524;9.846;2023-05-10T02:10:40;8.25;;;3.70;;
20639;SDS011;10479;53.524;9.846;2023-05-10T02:13:07;8.00;;;3.60;;
20639;SDS011;10479;53.524;9.846;2023-05-10T02:15:34;10.65;;;3.60;;
20639;SDS011;10479;53.524;9.846;2023-05-10T02:18:00;7.72;;;3.67;;
20639;SDS011;10479;53.524;9.846;2023-05-10T02:20:27;7.68;;;3.85;;
20639;SDS011;10479;53.524;9.846;2023-05-10T02:22:54;14.82;;;4.07;;
20639;SDS011;10479;53.524;9.846;2023-05-10T02:25:21;9.18;;;3.65;;
20639;SDS011;10479;53.524;9.846;2023-05-10T02:27:48;7.47;;;4.10;;
20639;SDS011;10479;53.524;9.846;2023-05-10T02:30:14;12.43;;;4.00;;
20639;SDS011;10479;53.524;9.846;2023-05-10T02:32:41;9.40;;;4.03;;
20639;SDS011;10479;53.524;9.846;2023-05-10T02:35:07;11.50;;;4.40;;
20639;SDS011;10479;53.524;9.846;2023-05-10T02:37:34;10.48;;;3.90;;
20639;SDS011;10479;53.524;9.846;2023-05-10T02:40:01;12.10;;;4.40;;
20639;SDS011;10479;53.524;9.846;2023-05-10T02:42:28;8.07;;;4.03;;
20639;SDS011;10479;53.524;9.846;2023-05-10T02:44:56;11.43;;;4.18;;
20639;SDS011;10479;53.524;9.846;2023-05-10T02:47:28;10.32;;;4.28;;
20639;SDS011;10479;53.524;9.846;2023-05-10T02:49:54;8.13;;;4.10;;
20639;SDS011;10479;53.524;9.846;2023-05-10T02:52:23;7.40;;;4.10;;
20639;SDS011;10479;53.524;9.846;2023-05-10T02:54:52;8.82;;;4.00;;
20639;SDS011;10479;53.524;9.846;2023-05-10T02:57:22;9.90;;;3.95;;
20639;SDS011;10479;53.524;9.846;2023-05-10T02:59:51;7.00;;;4.32;;
20639;SDS011;10479;53.524;9.846;2023-05-10T03:02:16;10.07;;;4.20;;
20639;SDS011;10479;53.524;9.846;2023-05-10T03:04:42;8.90;;;4.03;;
20639;SDS011;10479;53.524;9.846;2023-05-10T03:07:07;7.88;;;4.20;;
20639;SDS011;10479;53.524;9.846;2023-05-10T03:09:33;9.52;;;4.20;;
20639;SDS011;10479;53.524;9.846;2023-05-10T03:17:36;8.70;;;4.40;;
20639;SDS011;10479;53.524;9.846;2023-05-10T03:20:48;10.65;;;4.30;;
20639;SDS011;10479;53.524;9.846;2023-05-10T03:23:18;8.82;;;4.03;;
20639;SDS011;10479;53.524;9.846;2023-05-10T03:25:51;8.65;;;4.22;;
20639;SDS011;10479;53.524;9.846;2023-05-10T03:28:17;8.82;;;4.38;;
20639;SDS011;10479;53.524;9.846;2023-05-10T03:30:43;8.10;;;4.30;;
20639;SDS011;10479;53.524;9.846;2023-05-10T03:33:09;13.85;;;4.45;;
20639;SDS011;10479;53.524;9.846;2023-05-10T03:35:35;13.65;;;4.43;;
20639;SDS011;10479;53.524;9.846;2023-05-10T03:38:01;8.60;;;3.95;;
20639;SDS011;10479;53.524;9.846;2023-05-10T03:40:26;7.07;;;4.15;;
20639;SDS011;10479;53.524;9.846;2023-05-10T03:42:54;7.72;;;4.15;;
20639;SDS011;10479;53.524;9.846;2023-05-10T03:45:20;10.90;;;4.00;;
20639;SDS011;10479;53.524;9.846;2023-05-10T03:47:45;11.77;;;4.18;;
20639;SDS011;10479;53.524;9.846;2023-05-10T03:50:11;9.50;;;3.97;;
20639;SDS011;10479;53.524;9.846;2023-05-10T03:52:36;10.15;;;4.75;;
20639;SDS011;10479;53.524;9.846;2023-05-10T03:55:04;7.78;;;3.95;;
20639;SDS011;10479;53.524;9.846;2023-05-10T03:57:30;7.78;;;4.22;;
20639;SDS011;10479;53.524;9.846;2023-05-10T03:59:56;12.07;;;4.30;;
20639;SDS011;10479;53.524;9.846;2023-05-10T04:02:21;6.93;;;4.15;;
20639;SDS011;10479;53.524;9.846;2023-05-10T04:04:46;8.02;;;3.80;;
20639;SDS011;10479;53.524;9.846;2023-05-10T04:07:13;9.07;;;4.18;;
20639;SDS011;10479;53.524;9.846;2023-05-10T04:09:39;11.10;;;4.40;;
20639;SDS011;10479;53.524;9.846;2023-05-10T04:12:04;8.70;;;4.28;;
20639;SDS011;10479;53.524;9.846;2023-05-10T04:14:30;6.00;;;3.67;;
20639;SDS011;10479;53.524;9.846;2023-05-10T04:16:56;9.27;;;4.00;;
20639;SDS011;10479;53.524;9.846;2023-05-10T04:19:21;10.38;;;4.30;;
20639;SDS011;10479;53.524;9.846;2023-05-10T04:21:48;10.75;;;3.78;;
20639;SDS011;10479;53.524;9.846;2023-05-10T04:24:14;8.90;;;4.38;;
20639;SDS011;10479;53.524;9.846;2023-05-10T04:26:39;9.20;;;4.18;;
20639;SDS011;10479;53.524;9.846;2023-05-10T04:29:05;7.88;;;4.18;;
20639;SDS011;10479;53.524;9.846;2023-05-10T04:31:30;8.98;;;4.13;;
20639;SDS011;10479;53.524;9.846;2023-05-10T04:33:56;9.95;;;4.10;;
20639;SDS011;10479;53.524;9.846;2023-05-10T04:36:21;10.43;;;4.40;;
20639;SDS011;10479;53.524;9.846;2023-05-10T04:38:46;10.27;;;4.13;;
20639;SDS011;10479;53.524;9.846;2023-05-10T04:41:12;8.32;;;4.18;;
20639;SDS011;10479;53.524;9.846;2023-05-10T04:43:38;10.75;;;4.15;;
20639;SDS011;10479;53.524;9.846;2023-05-10T04:46:04;7.35;;;3.92;;
20639;SDS011;10479;53.524;9.846;2023-05-10T04:48:30;7.18;;;3.90;;
20639;SDS011;10479;53.524;9.846;2023-05-10T04:50:55;12.85;;;4.15;;
20639;SDS011;10479;53.524;9.846;2023-05-10T04:53:21;8.75;;;4.25;;
20639;SDS011;10479;53.524;9.846;2023-05-10T04:55:47;8.30;;;4.47;;
20639;SDS011;10479;53.524;9.846;2023-05-10T04:58:13;8.80;;;4.28;;
20639;SDS011;10479;53.524;9.846;2023-05-10T05:00:38;12.63;;;4.65;;
20639;SDS011;10479;53.524;9.846;2023-05-10T05:03:04;15.38;;;4.50;;
20639;SDS011;10479;53.524;9.846;2023-05-10T05:05:30;12.15;;;4.38;;
20639;SDS011;10479;53.524;9.846;2023-05-10T05:07:55;10.27;;;4.32;;
20639;SDS011;10479;53.524;9.846;2023-05-10T05:10:21;8.38;;;4.43;;
20639;SDS011;10479;53.524;9.846;2023-05-10T05:12:46;9.35;;;3.95;;
20639;SDS011;10479;53.524;9.846;2023-05-10T05:15:12;9.35;;;4.60;;
20639;SDS011;10479;53.524;9.846;2023-05-10T05:17:37;8.65;;;4.13;;
20639;SDS011;10479;53.524;9.846;2023-05-10T05:20:03;9.40;;;4.30;;
20639;SDS011;10479;53.524;9.846;2023-05-10T05:22:28;15.82;;;5.35;;
20639;SDS011;10479;53.524;9.846;2023-05-10T05:24:54;7.65;;;4.03;;
20639;SDS011;10479;53.524;9.846;2023-05-10T05:27:20;11.35;;;4.70;;
20639;SDS011;10479;53.524;9.846;2023-05-10T05:29:49;10.35;;;4.68;;
20639;SDS011;10479;53.524;9.846;2023-05-10T05:32:21;8.02;;;4.05;;
20639;SDS011;10479;53.524;9.846;2023-05-10T05:34:47;6.95;;;4.00;;
20639;SDS011;10479;53.524;9.846;2023-05-10T05:37:16;13.63;;;4.32;;
20639;SDS011;10479;53.524;9.846;2023-05-10T05:39:43;13.02;;;4.65;;
20639;SDS011;10479;53.524;9.846;2023-05-10T05:42:09;13.00;;;4.55;;
20639;SDS011;10479;53.524;9.846;2023-05-10T05:44:35;9.07;;;4.40;;
20639;SDS011;10479;53.524;9.846;2023-05-10T05:47:00;11.00;;;4.45;;
20639;SDS011;10479;53.524;9.846;2023-05-10T05:49:26;10.32;;;5.03;;
20639;SDS011;10479;53.524;9.846;2023-05-10T05:51:51;9.57;;;4.70;;
20639;SDS011;10479;53.524;9.846;2023-05-10T05:54:17;6.93;;;4.25;;
20639;SDS011;10479;53.524;9.846;2023-05-10T05:56:42;9.93;;;4.28;;
20639;SDS011;10479;53.524;9.846;2023-05-10T05:59:09;11.27;;;4.60;;
20639;SDS011;10479;53.524;9.846;2023-05-10T06:01:35;9.20;;;4.38;;
20639;SDS011;10479;53.524;9.846;2023-05-10T06:04:00;8.20;;;4.07;;
20639;SDS011;10479;53.524;9.846;2023-05-10T06:06:26;10.25;;;4.38;;
20639;SDS011;10479;53.524;9.846;2023-05-10T06:08:52;9.02;;;4.75;;
20639;SDS011;10479;53.524;9.846;2023-05-10T06:11:17;10.23;;;4.47;;
20639;SDS011;10479;53.524;9.846;2023-05-10T06:13:42;7.22;;;4.40;;
20639;SDS011;10479;53.524;9.846;2023-05-10T06:16:08;9.65;;;4.85;;
20639;SDS011;10479;53.524;9.846;2023-05-10T06:18:33;10.82;;;4.70;;
20639;SDS011;10479;53.524;9.846;2023-05-10T06:20:59;10.60;;;4.78;;
20639;SDS011;10479;53.524;9.846;2023-05-10T06:23:25;10.48;;;4.47;;
20639;SDS011;10479;53.524;9.846;2023-05-10T06:25:51;11.10;;;4.38;;
20639;SDS011;10479;53.524;9.846;2023-05-10T06:28:17;9.73;;;4.38;;
20639;SDS011;10479;53.524;9.846;2023-05-10T06:30:42;12.50;;;4.93;;
20639;SDS011;10479;53.524;9.846;2023-05-10T06:33:08;9.57;;;4.50;;
20639;SDS011;10479;53.524;9.846;2023-05-10T06:35:33;9.07;;;4.22;;
20639;SDS011;10479;53.524;9.846;2023-05-10T06:37:59;9.80;;;4.28;;
20639;SDS011;10479;53.524;9.846;2023-05-10T06:40:24;8.18;;;4.50;;
20639;SDS011;10479;53.524;9.846;2023-05-10T06:42:50;10.20;;;4.38;;
20639;SDS011;10479;53.524;9.846;2023-05-10T06:45:15;11.07;;;4.47;;
20639;SDS011;10479;53.524;9.846;2023-05-10T06:47:41;10.43;;;3.88;;
20639;SDS011;10479;53.524;9.846;2023-05-10T06:50:07;7.07;;;4.22;;
20639;SDS011;10479;53.524;9.846;2023-05-10T06:52:33;7.80;;;4.45;;
20639;SDS011;10479;53.524;9.846;2023-05-10T06:54:59;8.10;;;4.30;;
20639;SDS011;10479;53.524;9.846;2023-05-10T06:57:25;7.57;;;3.95;;
20639;SDS011;10479;53.524;9.846;2023-05-10T06:59:51;10.30;;;4.25;;
20639;SDS011;10479;53.524;9.846;2023-05-10T07:02:17;10.65;;;4.30;;
20639;SDS011;10479;53.524;9.846;2023-05-10T07:04:42;9.07;;;4.38;;
20639;SDS011;10479;53.524;9.846;2023-05-10T07:07:08;6.63;;;4.00;;
20639;SDS011;10479;53.524;9.846;2023-05-10T07:09:33;6.97;;;3.92;;
20639;SDS011;10479;53.524;9.846;2023-05-10T07:11:59;7.70;;;4.03;;
20639;SDS011;10479;53.524;9.846;2023-05-10T07:14:24;10.45;;;4.10;;
20639;SDS011;10479;53.524;9.846;2023-05-10T07:16:50;10.13;;;4.20;;
20639;SDS011;10479;53.524;9.846;2023-05-10T07:19:15;7.72;;;3.70;;
20639;SDS011;10479;53.524;9.846;2023-05-10T07:21:41;8.57;;;3.97;;
20639;SDS011;10479;53.524;9.846;2023-05-10T07:24:08;7.72;;;3.67;;
20639;SDS011;10479;53.524;9.846;2023-05-10T07:26:33;10.00;;;4.28;;
20639;SDS011;10479;53.524;9.846;2023-05-10T07:28:59;8.20;;;4.15;;
20639;SDS011;10479;53.524;9.846;2023-05-10T07:31:24;11.07;;;3.95;;
20639;SDS011;10479;53.524;9.846;2023-05-10T07:33:50;10.43;;;3.95;;
20639;SDS011;10479;53.524;9.846;2023-05-10T07:36:15;9.20;;;3.90;;
20639;SDS011;10479;53.524;9.846;2023-05-10T07:38:40;11.15;;;3.88;;
20639;SDS011;10479;53.524;9.846;2023-05-10T07:41:06;7.85;;;3.60;;
20639;SDS011;10479;53.524;9.846;2023-05-10T07:43:31;7.13;;;4.05;;
20639;SDS011;10479;53.524;9.846;2023-05-10T07:45:57;7.75;;;4.05;;
20639;SDS011;10479;53.524;9.846;2023-05-10T07:48:24;9.10;;;4.55;;
20639;SDS011;10479;53.524;9.846;2023-05-10T07:50:50;9.13;;;3.85;;
20639;SDS011;10479;53.524;9.846;2023-05-10T07:53:15;8.57;;;3.80;;
20639;SDS011;10479;53.524;9.846;2023-05-10T07:55:41;5.47;;;3.60;;
20639;SDS011;10479;53.524;9.846;2023-05-10T07:58:07;9.65;;;3.95;;
20639;SDS011;10479;53.524;9.846;2023-05-10T08:00:32;8.15;;;4.22;;
20639;SDS011;10479;53.524;9.846;2023-05-10T08:02:58;9.88;;;3.70;;
20639;SDS011;10479;53.524;9.846;2023-05-10T08:05:24;9.23;;;4.18;;
20639;SDS011;10479;53.524;9.846;2023-05-10T08:07:50;9.32;;;4.15;;
20639;SDS011;10479;53.524;9.846;2023-05-10T08:10:16;9.95;;;4.30;;
20639;SDS011;10479;53.524;9.846;2023-05-10T08:12:41;6.68;;;3.90;;
20639;SDS011;10479;53.524;9.846;2023-05-10T08:15:07;10.32;;;4.22;;
20639;SDS011;10479;53.524;9.846;2023-05-10T08:17:33;12.68;;;4.85;;
20639;SDS011;10479;53.524;9.846;2023-05-10T08:19:59;8.50;;;3.83;;
20639;SDS011;10479;53.524;9.846;2023-05-10T08:22:24;7.05;;;4.45;;
20639;SDS011;10479;53.524;9.846;2023-05-10T08:24:50;7.65;;;3.95;;
20639;SDS011;10479;53.524;9.846;2023-05-10T08:27:15;10.02;;;4.40;;
20639;SDS011;10479;53.524;9.846;2023-05-10T08:29:40;9.43;;;4.38;;
20639;SDS011;10479;53.524;9.846;2023-05-10T08:32:06;9.48;;;4.55;;
20639;SDS011;10479;53.524;9.846;2023-05-10T08:34:31;7.28;;;4.00;;
20639;SDS011;10479;53.524;9.846;2023-05-10T08:36:57;12.40;;;4.82;;
20639;SDS011;10479;53.524;9.846;2023-05-10T08:39:22;13.32;;;4.50;;
20639;SDS011;10479;53.524;9.846;2023-05-10T08:41:48;9.13;;;4.90;;
20639;SDS011;10479;53.524;9.846;2023-05-10T08:44:16;7.40;;;4.80;;
20639;SDS011;10479;53.524;9.846;2023-05-10T08:46:43;10.00;;;4.25;;
20639;SDS011;10479;53.524;9.846;2023-05-10T08:49:12;7.88;;;4.53;;
20639;SDS011;10479;53.524;9.846;2023-05-10T08:51:40;10.25;;;5.00;;
20639;SDS011;10479;53.524;9.846;2023-05-10T08:54:10;8.10;;;4.82;;
20639;SDS011;10479;53.524;9.846;2023-05-10T08:56:35;10.35;;;4.90;;
20639;SDS011;10479;53.524;9.846;2023-05-10T08:59:01;10.25;;;5.88;;
20639;SDS011;10479;53.524;9.846;2023-05-10T09:01:26;10.80;;;4.93;;
20639;SDS011;10479;53.524;9.846;2023-05-10T09:03:52;11.68;;;5.65;;
20639;SDS011;10479;53.524;9.846;2023-05-10T09:06:18;11.48;;;5.32;;
20639;SDS011;10479;53.524;9.846;2023-05-10T09:08:43;10.70;;;5.50;;
20639;SDS011;10479;53.524;9.846;2023-05-10T09:11:09;9.13;;;5.65;;
20639;SDS011;10479;53.524;9.846;2023-05-10T09:13:36;10.85;;;5.20;;
20639;SDS011;10479;53.524;9.846;2023-05-10T09:16:02;11.00;;;4.95;;
20639;SDS011;10479;53.524;9.846;2023-05-10T09:18:28;10.70;;;5.68;;
20639;SDS011;10479;53.524;9.846;2023-05-10T09:20:54;8.75;;;5.00;;
20639;SDS011;10479;53.524;9.846;2023-05-10T09:23:20;9.90;;;6.03;;
20639;SDS011;10479;53.524;9.846;2023-05-10T09:25:45;8.98;;;5.63;;
20639;SDS011;10479;53.524;9.846;2023-05-10T09:28:11;15.27;;;6.18;;
20639;SDS011;10479;53.524;9.846;2023-05-10T09:30:36;13.85;;;6.72;;
20639;SDS011;10479;53.524;9.846;2023-05-10T09:33:02;13.43;;;6.32;;
20639;SDS011;10479;53.524;9.846;2023-05-10T09:35:28;9.90;;;6.40;;
20639;SDS011;10479;53.524;9.846;2023-05-10T09:37:56;12.27;;;6.85;;
20639;SDS011;10479;53.524;9.846;2023-05-10T09:40:23;9.88;;;5.95;;
20639;SDS011;10479;53.524;9.846;2023-05-10T09:45:25;11.18;;;7.22;;
20639;SDS011;10479;53.524;9.846;2023-05-10T09:47:53;11.20;;;6.97;;
20639;SDS011;10479;53.524;9.846;2023-05-10T09:50:19;11.60;;;6.95;;
20639;SDS011;10479;53.524;9.846;2023-05-10T09:55:22;10.73;;;6.65;;
20639;SDS011;10479;53.524;9.846;2023-05-10T09:57:49;10.38;;;6.72;;
20639;SDS011;10479;53.524;9.846;2023-05-10T10:00:23;11.02;;;7.05;;
20639;SDS011;10479;53.524;9.846;2023-05-10T10:02:56;12.43;;;7.50;;
20639;SDS011;10479;53.524;9.846;2023-05-10T10:05:29;14.55;;;8.30;;
20639;SDS011;10479;53.524;9.846;2023-05-10T10:07:58;12.65;;;7.93;;
20639;SDS011;10479;53.524;9.846;2023-05-10T10:10:25;13.82;;;8.90;;
20639;SDS011;10479;53.524;9.846;2023-05-10T10:12:51;12.88;;;8.73;;
20639;SDS011;10479;53.524;9.846;2023-05-10T10:15:17;13.52;;;9.18;;
20639;SDS011;10479;53.524;9.846;2023-05-10T10:17:43;16.50;;;8.45;;
20639;SDS011;10479;53.524;9.846;2023-05-10T10:20:09;13.85;;;9.43;;
20639;SDS011;10479;53.524;9.846;2023-05-10T10:22:34;13.82;;;9.07;;
20639;SDS011;10479;53.524;9.846;2023-05-10T10:25:00;20.77;;;9.75;;
20639;SDS011;10479;53.524;9.846;2023-05-10T10:27:32;15.57;;;10.00;;
20639;SDS011;10479;53.524;9.846;2023-05-10T10:35:17;14.23;;;9.65;;
20639;SDS011;10479;53.524;9.846;2023-05-10T10:37:43;14.30;;;9.40;;
20639;SDS011;10479;53.524;9.846;2023-05-10T10:43:28;16.17;;;9.38;;
20639;SDS011;10479;53.524;9.846;2023-05-10T10:46:15;18.52;;;10.77;;
20639;SDS011;10479;53.524;9.846;2023-05-10T10:48:49;16.45;;;10.60;;
20639;SDS011;10479;53.524;9.846;2023-05-10T10:51:17;15.43;;;10.02;;
20639;SDS011;10479;53.524;9.846;2023-05-10T10:53:42;15.82;;;10.20;;
20639;SDS011;10479;53.524;9.846;2023-05-10T10:56:09;15.27;;;9.82;;
20639;SDS011;10479;53.524;9.846;2023-05-10T10:58:40;13.57;;;9.48;;
20639;SDS011;10479;53.524;9.846;2023-05-10T11:01:24;15.43;;;10.00;;
20639;SDS011;10479;53.524;9.846;2023-05-10T11:06:31;16.95;;;9.18;;
20639;SDS011;10479;53.524;9.846;2023-05-10T11:08:58;12.07;;;8.32;;
20639;SDS011;10479;53.524;9.846;2023-05-10T11:11:24;16.30;;;8.68;;
20639;SDS011;10479;53.524;9.846;2023-05-10T11:13:50;16.05;;;9.10;;
20639;SDS011;10479;53.524;9.846;2023-05-10T11:16:20;13.13;;;8.80;;
20639;SDS011;10479;53.524;9.846;2023-05-10T11:19:01;12.18;;;8.45;;
20639;SDS011;10479;53.524;9.846;2023-05-10T11:21:33;15.65;;;9.23;;
20639;SDS011;10479;53.524;9.846;2023-05-10T11:23:59;15.18;;;9.05;;
20639;SDS011;10479;53.524;9.846;2023-05-10T11:26:32;15.63;;;9.90;;
20639;SDS011;10479;53.524;9.846;2023-05-10T11:28:59;15.77;;;8.73;;
20639;SDS011;10479;53.524;9.846;2023-05-10T11:31:26;16.40;;;9.20;;
20639;SDS011;10479;53.524;9.846;2023-05-10T11:33:54;16.13;;;9.25;;
20639;SDS011;10479;53.524;9.846;2023-05-10T11:36:24;16.15;;;9.40;;
20639;SDS011;10479;53.524;9.846;2023-05-10T11:38:50;16.52;;;10.20;;
20639;SDS011;10479;53.524;9.846;2023-05-10T11:41:17;14.23;;;8.93;;
20639;SDS011;10479;53.524;9.846;2023-05-10T11:43:45;17.08;;;9.50;;
20639;SDS011;10479;53.524;9.846;2023-05-10T11:46:12;15.15;;;10.13;;
20639;SDS011;10479;53.524;9.846;2023-05-10T11:48:38;16.38;;;9.18;;
20639;SDS011;10479;53.524;9.846;2023-05-10T11:51:04;12.70;;;7.85;;
20639;SDS011;10479;53.524;9.846;2023-05-10T11:53:31;11.95;;;7.68;;
20639;SDS011;10479;53.524;9.846;2023-05-10T11:56:04;15.35;;;8.65;;
20639;SDS011;10479;53.524;9.846;2023-05-10T11:58:31;16.20;;;9.32;;
20639;SDS011;10479;53.524;9.846;2023-05-10T12:00:58;13.02;;;8.40;;
20639;SDS011;10479;53.524;9.846;2023-05-10T12:03:24;11.60;;;7.07;;
20639;SDS011;10479;53.524;9.846;2023-05-10T12:05:49;11.00;;;7.43;;
20639;SDS011;10479;53.524;9.846;2023-05-10T12:08:15;9.23;;;6.65;;
20639;SDS011;10479;53.524;9.846;2023-05-10T12:10:45;12.70;;;7.43;;
20639;SDS011;10479;53.524;9.846;2023-05-10T12:13:11;12.93;;;8.10;;
20639;SDS011;10479;53.524;9.846;2023-05-10T12:15:39;12.63;;;7.55;;
20639;SDS011;10479;53.524;9.846;2023-05-10T12:18:05;11.98;;;7.55;;
20639;SDS011;10479;53.524;9.846;2023-05-10T12:20:30;11.82;;;8.00;;
20639;SDS011;10479;53.524;9.846;2023-05-10T12:22:56;11.60;;;7.55;;
20639;SDS011;10479;53.524;9.846;2023-05-10T12:25:23;9.65;;;6.85;;
20639;SDS011;10479;53.524;9.846;2023-05-10T12:27:50;10.02;;;6.30;;
20639;SDS011;10479;53.524;9.846;2023-05-10T12:30:24;8.15;;;5.50;;
20639;SDS011;10479;53.524;9.846;2023-05-10T12:32:52;9.73;;;6.28;;
20639;SDS011;10479;53.524;9.846;2023-05-10T12:35:18;10.85;;;6.50;;
20639;SDS011;10479;53.524;9.846;2023-05-10T12:37:47;7.28;;;5.10;;
20639;SDS011;10479;53.524;9.846;2023-05-10T12:40:13;8.50;;;5.55;;
20639;SDS011;10479;53.524;9.846;2023-05-10T12:42:38;9.75;;;5.65;;
20639;SDS011;10479;53.524;9.846;2023-05-10T12:45:05;12.38;;;6.80;;
20639;SDS011;10479;53.524;9.846;2023-05-10T12:47:31;7.53;;;5.25;;
20639;SDS011;10479;53.524;9.846;2023-05-10T12:49:57;7.72;;;5.22;;
20639;SDS011;10479;53.524;9.846;2023-05-10T12:52:24;9.23;;;4.90;;
20639;SDS011;10479;53.524;9.846;2023-05-10T12:54:51;6.97;;;4.88;;
20639;SDS011;10479;53.524;9.846;2023-05-10T12:57:17;7.80;;;5.65;;
20639;SDS011;10479;53.524;9.846;2023-05-10T12:59:43;9.85;;;5.50;;
20639;SDS011;10479;53.524;9.846;2023-05-10T13:02:08;8.95;;;5.50;;
20639;SDS011;10479;53.524;9.846;2023-05-10T13:04:34;10.23;;;7.22;;
20639;SDS011;10479;53.524;9.846;2023-05-10T13:06:59;8.73;;;6.22;;
20639;SDS011;10479;53.524;9.846;2023-05-10T13:09:25;8.07;;;5.70;;
20639;SDS011;10479;53.524;9.846;2023-05-10T13:11:51;10.05;;;6.35;;
20639;SDS011;10479;53.524;9.846;2023-05-10T13:14:18;8.15;;;5.60;;
20639;SDS011;10479;53.524;9.846;2023-05-10T13:16:45;10.40;;;6.70;;
20639;SDS011;10479;53.524;9.846;2023-05-10T13:19:11;10.38;;;6.47;;
20639;SDS011;10479;53.524;9.846;2023-05-10T13:21:36;9.45;;;6.75;;
20639;SDS011;10479;53.524;9.846;2023-05-10T13:24:01;11.80;;;7.25;;
20639;SDS011;10479;53.524;9.846;2023-05-10T13:26:27;10.48;;;7.18;;
20639;SDS011;10479;53.524;9.846;2023-05-10T13:28:53;11.98;;;7.82;;
20639;SDS011;10479;53.524;9.846;2023-05-10T13:31:20;10.90;;;6.80;;
20639;SDS011;10479;53.524;9.846;2023-05-10T13:33:46;11.95;;;7.13;;
20639;SDS011;10479;53.524;9.846;2023-05-10T13:36:11;10.57;;;7.20;;
20639;SDS011;10479;53.524;9.846;2023-05-10T13:38:37;12.25;;;7.25;;
20639;SDS011;10479;53.524;9.846;2023-05-10T13:41:02;11.60;;;7.60;;
20639;SDS011;10479;53.524;9.846;2023-05-10T13:43:28;13.38;;;6.85;;
20639;SDS011;10479;53.524;9.846;2023-05-10T13:45:54;13.63;;;9.43;;
20639;SDS011;10479;53.524;9.846;2023-05-10T13:48:20;11.40;;;6.88;;
20639;SDS011;10479;53.524;9.846;2023-05-10T13:50:46;11.27;;;7.93;;
20639;SDS011;10479;53.524;9.846;2023-05-10T13:53:12;13.93;;;8.52;;
20639;SDS011;10479;53.524;9.846;2023-05-10T13:55:37;13.88;;;9.00;;
20639;SDS011;10479;53.524;9.846;2023-05-10T13:58:03;10.30;;;7.35;;
20639;SDS011;10479;53.524;9.846;2023-05-10T14:00:29;15.93;;;8.82;;
20639;SDS011;10479;53.524;9.846;2023-05-10T14:02:54;10.90;;;7.32;;
20639;SDS011;10479;53.524;9.846;2023-05-10T14:05:20;10.10;;;6.95;;
20639;SDS011;10479;53.524;9.846;2023-05-10T14:07:45;9.45;;;6.85;;
20639;SDS011;10479;53.524;9.846;2023-05-10T14:10:11;10.65;;;7.07;;
20639;SDS011;10479;53.524;9.846;2023-05-10T14:12:36;10.82;;;7.32;;
20639;SDS011;10479;53.524;9.846;2023-05-10T14:15:02;10.77;;;7.65;;
20639;SDS011;10479;53.524;9.846;2023-05-10T14:17:30;10.43;;;6.75;;
20639;SDS011;10479;53.524;9.846;2023-05-10T14:19:56;9.50;;;6.57;;
20639;SDS011;10479;53.524;9.846;2023-05-10T14:22:22;8.82;;;6.13;;
20639;SDS011;10479;53.524;9.846;2023-05-10T14:24:47;11.18;;;6.38;;
20639;SDS011;10479;53.524;9.846;2023-05-10T14:27:13;9.40;;;5.65;;
20639;SDS011;10479;53.524;9.846;2023-05-10T14:29:39;8.80;;;6.47;;
20639;SDS011;10479;53.524;9.846;2023-05-10T14:32:04;7.85;;;6.00;;
20639;SDS011;10479;53.524;9.846;2023-05-10T14:34:30;8.57;;;5.55;;
20639;SDS011;10479;53.524;9.846;2023-05-10T14:36:56;8.05;;;5.90;;
20639;SDS011;10479;53.524;9.846;2023-05-10T14:39:21;9.02;;;6.03;;
20639;SDS011;10479;53.524;9.846;2023-05-10T14:41:48;10.38;;;6.50;;
20639;SDS011;10479;53.524;9.846;2023-05-10T14:44:13;9.10;;;5.90;;
20639;SDS011;10479;53.524;9.846;2023-05-10T14:46:40;11.43;;;6.07;;
20639;SDS011;10479;53.524;9.846;2023-05-10T14:49:06;9.25;;;6.18;;
20639;SDS011;10479;53.524;9.846;2023-05-10T14:51:32;8.73;;;5.97;;
20639;SDS011;10479;53.524;9.846;2023-05-10T14:53:57;7.55;;;5.95;;
20639;SDS011;10479;53.524;9.846;2023-05-10T14:56:23;11.73;;;6.57;;
20639;SDS011;10479;53.524;9.846;2023-05-10T14:58:49;7.45;;;5.75;;
20639;SDS011;10479;53.524;9.846;2023-05-10T15:01:15;8.02;;;5.35;;
20639;SDS011;10479;53.524;9.846;2023-05-10T15:03:40;9.25;;;6.55;;
20639;SDS011;10479;53.524;9.846;2023-05-10T15:06:06;11.00;;;5.85;;
20639;SDS011;10479;53.524;9.846;2023-05-10T15:08:32;9.20;;;6.15;;
20639;SDS011;10479;53.524;9.846;2023-05-10T15:10:58;8.90;;;6.32;;